Back to Top

Language: 

My Weather Underground Personal Weather Station Historical Data with Graphs...

Delerius Weather Station Historical Data
Daily Summary for July 6, 2017 Units:  English    Metric   Both
« Previous Day
Next Day »
Daily Weekly Monthly Yearly Custom
  High: Low: Average:
Temperature: 81.9 °F 56.5 °F 67.4 °F
Dew Point: 67.6 °F 54.5 °F 59.1 °F
Humidity: 93 % 51 % 77 %
Wind Speed: 9.0 mph 0.0 mph 4.3 mph
Wind Gust: 15.0 mph - -
Wind:- - South
Pressure: 30.09 in 29.86 in -
Precipitation: 0.09 in    
Historical Graphs
 
 
Tabular Data for July 6, 2017
Time Temperature Dew Point Pressure Wind Wind Speed Wind Gust Humidity Rainfall Rate (Hourly) solar Conditions
00:04 58.5 °F 55.2 °F 30.09 in ENE 1.0 mph 5.0 mph 89 % 0.00 in 0 W/m2
00:09 58.5 °F 55.2 °F 30.09 in ENE 1.0 mph 5.0 mph 89 % 0.00 in 0 W/m2
00:14 58.5 °F 55.2 °F 30.09 in ENE 1.0 mph 5.0 mph 89 % 0.00 in 0 W/m2
00:19 58.5 °F 55.2 °F 30.09 in ENE 1.0 mph 6.0 mph 89 % 0.00 in 0 W/m2
00:24 58.3 °F 55.1 °F 30.09 in ENE 2.0 mph 6.0 mph 89 % 0.00 in 0 W/m2
00:29 58.3 °F 55.1 °F 30.09 in ENE 3.0 mph 6.0 mph 89 % 0.00 in 0 W/m2
00:34 58.3 °F 55.4 °F 30.09 in ENE 2.0 mph 5.0 mph 90 % 0.00 in 0 W/m2
00:39 58.1 °F 55.2 °F 30.09 in ENE 2.0 mph 5.0 mph 90 % 0.00 in 0 W/m2
00:44 57.9 °F 55.0 °F 30.09 in ENE 3.0 mph 5.0 mph 90 % 0.00 in 0 W/m2
00:49 57.9 °F 55.0 °F 30.09 in ENE 2.0 mph 6.0 mph 90 % 0.00 in 0 W/m2
00:54 57.9 °F 55.0 °F 30.09 in ENE 2.0 mph 6.0 mph 90 % 0.00 in 0 W/m2
00:59 57.9 °F 55.0 °F 30.08 in ENE 1.0 mph 5.0 mph 90 % 0.00 in 0 W/m2
01:04 57.7 °F 54.8 °F 30.09 in ENE 1.0 mph 5.0 mph 90 % 0.00 in 0 W/m2
01:09 57.7 °F 54.8 °F 30.08 in ENE 2.0 mph 6.0 mph 90 % 0.00 in 0 W/m2
01:14 57.6 °F 54.6 °F 30.08 in ENE 2.0 mph 6.0 mph 90 % 0.00 in 0 W/m2
01:19 57.6 °F 54.6 °F 30.08 in ENE 2.0 mph 5.0 mph 90 % 0.00 in 0 W/m2
01:24 57.6 °F 55.0 °F 30.08 in ENE 1.0 mph 5.0 mph 91 % 0.00 in 0 W/m2
01:29 57.6 °F 55.0 °F 30.08 in ENE 1.0 mph 5.0 mph 91 % 0.00 in 0 W/m2
01:34 57.6 °F 55.0 °F 30.08 in ENE 1.0 mph 5.0 mph 91 % 0.00 in 0 W/m2
01:39 57.4 °F 54.8 °F 30.08 in ENE 1.0 mph 5.0 mph 91 % 0.00 in 0 W/m2
01:45 57.4 °F 54.8 °F 30.08 in ENE 1.0 mph 5.0 mph 91 % 0.00 in 0 W/m2
01:50 57.4 °F 54.8 °F 30.08 in ENE 1.0 mph 5.0 mph 91 % 0.00 in 0 W/m2
01:55 57.4 °F 54.8 °F 30.08 in ENE 1.0 mph 5.0 mph 91 % 0.00 in 0 W/m2
02:00 57.4 °F 54.8 °F 30.08 in ENE 1.0 mph 5.0 mph 91 % 0.00 in 0 W/m2
02:05 57.2 °F 54.6 °F 30.08 in ENE 1.0 mph 5.0 mph 91 % 0.00 in 0 W/m2
02:10 57.2 °F 54.6 °F 30.08 in ENE 1.0 mph 5.0 mph 91 % 0.00 in 0 W/m2
02:15 57.0 °F 54.7 °F 30.08 in ENE 1.0 mph 5.0 mph 92 % 0.00 in 0 W/m2
02:20 57.2 °F 54.9 °F 30.08 in ENE 2.0 mph 5.0 mph 92 % 0.00 in 0 W/m2
02:25 57.0 °F 54.7 °F 30.08 in ENE 2.0 mph 5.0 mph 92 % 0.00 in 0 W/m2
02:26 57.0 °F 54.7 °F 30.08 in East 1.0 mph 5.0 mph 92 % 0.00 in 0 W/m2
02:31 57.0 °F 54.7 °F 30.07 in East 1.0 mph 5.0 mph 92 % 0.00 in 0 W/m2
02:36 57.0 °F 54.7 °F 30.07 in East 1.0 mph 4.0 mph 92 % 0.00 in 0 W/m2
02:41 57.0 °F 54.7 °F 30.07 in East 1.0 mph 5.0 mph 92 % 0.00 in 0 W/m2
02:46 57.0 °F 54.7 °F 30.07 in ENE 1.0 mph 5.0 mph 92 % 0.00 in 0 W/m2
02:51 57.0 °F 54.7 °F 30.07 in ENE 1.0 mph 4.0 mph 92 % 0.00 in 0 W/m2
02:56 57.0 °F 54.7 °F 30.07 in ENE 1.0 mph 4.0 mph 92 % 0.00 in 0 W/m2
03:01 57.0 °F 54.7 °F 30.06 in ENE 1.0 mph 5.0 mph 92 % 0.00 in 0 W/m2
03:06 56.8 °F 54.5 °F 30.07 in NE 1.0 mph 5.0 mph 92 % 0.00 in 0 W/m2
03:11 56.8 °F 54.5 °F 30.07 in ENE 1.0 mph 5.0 mph 92 % 0.00 in 0 W/m2
03:17 56.8 °F 54.5 °F 30.06 in ENE 1.0 mph 4.0 mph 92 % 0.00 in 0 W/m2
03:22 56.8 °F 54.5 °F 30.06 in Calm   2.0 mph 92 % 0.00 in 0 W/m2
03:27 56.8 °F 54.5 °F 30.06 in Calm   2.0 mph 92 % 0.00 in 0 W/m2
03:32 56.8 °F 54.5 °F 30.06 in Calm   2.0 mph 92 % 0.00 in 0 W/m2
03:37 56.8 °F 54.8 °F 30.06 in ENE 1.0 mph 5.0 mph 93 % 0.00 in 0 W/m2
03:42 56.8 °F 54.5 °F 30.06 in East 1.0 mph 5.0 mph 92 % 0.00 in 0 W/m2
03:47 56.8 °F 54.5 °F 30.06 in Calm   2.0 mph 92 % 0.00 in 0 W/m2
03:52 56.8 °F 54.8 °F 30.06 in ENE 1.0 mph 5.0 mph 93 % 0.00 in 0 W/m2
03:57 56.8 °F 54.8 °F 30.05 in ENE 1.0 mph 5.0 mph 93 % 0.00 in 0 W/m2
04:02 56.8 °F 54.8 °F 30.05 in ENE 1.0 mph 4.0 mph 93 % 0.00 in 0 W/m2
04:07 56.7 °F 54.7 °F 30.05 in East 1.0 mph 5.0 mph 93 % 0.00 in 0 W/m2
04:12 56.7 °F 54.7 °F 30.05 in East 2.0 mph 5.0 mph 93 % 0.00 in 0 W/m2
04:17 56.7 °F 54.7 °F 30.05 in East 1.0 mph 4.0 mph 93 % 0.00 in 0 W/m2
04:22 56.7 °F 54.7 °F 30.05 in ESE 1.0 mph 4.0 mph 93 % 0.00 in 0 W/m2
04:27 56.7 °F 54.7 °F 30.05 in ESE 1.0 mph 4.0 mph 93 % 0.00 in 0 W/m2
04:32 56.7 °F 54.7 °F 30.05 in Calm   3.0 mph 93 % 0.00 in 0 W/m2
04:37 56.7 °F 54.7 °F 30.05 in Calm   3.0 mph 93 % 0.00 in 0 W/m2
04:42 56.7 °F 54.7 °F 30.05 in Calm   4.0 mph 93 % 0.00 in 0 W/m2
04:47 56.7 °F 54.7 °F 30.04 in Calm   4.0 mph 93 % 0.00 in 0 W/m2
04:52 56.5 °F 54.5 °F 30.04 in Calm   2.0 mph 93 % 0.00 in 0 W/m2
04:57 56.5 °F 54.5 °F 30.04 in Calm   2.0 mph 93 % 0.00 in 0 W/m2
05:02 56.7 °F 54.7 °F 30.04 in Calm   2.0 mph 93 % 0.00 in 0 W/m2
05:07 56.7 °F 54.7 °F 30.04 in ESE 1.0 mph 4.0 mph 93 % 0.00 in 0 W/m2
05:13 56.7 °F 54.7 °F 30.04 in ESE 1.0 mph 4.0 mph 93 % 0.00 in 0 W/m2
05:18 56.7 °F 54.7 °F 30.04 in ESE 1.0 mph 4.0 mph 93 % 0.00 in 5 W/m2
05:23 56.7 °F 54.7 °F 30.04 in ESE 1.0 mph 4.0 mph 93 % 0.00 in 11 W/m2
05:28 56.7 °F 54.7 °F 30.04 in ESE 1.0 mph 4.0 mph 93 % 0.00 in 11 W/m2
05:33 56.7 °F 54.7 °F 30.04 in ESE 1.0 mph 4.0 mph 93 % 0.00 in 14 W/m2
05:38 56.7 °F 54.7 °F 30.03 in ESE 1.0 mph 6.0 mph 93 % 0.00 in 18 W/m2
05:40 56.7 °F 54.7 °F 30.03 in ESE 1.0 mph 6.0 mph 93 % 0.00 in 19 W/m2
05:45 56.7 °F 54.7 °F 30.03 in SE 2.0 mph 6.0 mph 93 % 0.00 in 21 W/m2
05:50 56.7 °F 54.7 °F 30.03 in SE 1.0 mph 4.0 mph 93 % 0.00 in 21 W/m2
05:55 56.8 °F 54.8 °F 30.04 in Calm   3.0 mph 93 % 0.00 in 21 W/m2
06:00 56.8 °F 54.8 °F 30.04 in SE 1.0 mph 4.0 mph 93 % 0.00 in 25 W/m2
06:05 56.8 °F 54.8 °F 30.04 in SE 1.0 mph 6.0 mph 93 % 0.00 in 25 W/m2
06:06 56.8 °F 54.8 °F 30.04 in SE 2.0 mph 6.0 mph 93 % 0.00 in 25 W/m2
06:11 57.0 °F 55.0 °F 30.03 in SE 2.0 mph 6.0 mph 93 % 0.00 in 35 W/m2
06:16 57.0 °F 55.0 °F 30.03 in SE 3.0 mph 7.0 mph 93 % 0.00 in 40 W/m2
06:21 57.0 °F 55.0 °F 30.03 in SSE 3.0 mph 7.0 mph 93 % 0.00 in 47 W/m2
06:26 57.0 °F 55.0 °F 30.02 in SSE 4.0 mph 7.0 mph 93 % 0.00 in 60 W/m2
06:31 57.2 °F 55.2 °F 30.02 in SSE 5.0 mph 9.0 mph 93 % 0.00 in 79 W/m2
06:36 57.2 °F 55.2 °F 30.03 in SE 6.0 mph 10.0 mph 93 % 0.00 in 58 W/m2
06:41 57.2 °F 55.2 °F 30.03 in SSE 6.0 mph 10.0 mph 93 % 0.00 in 54 W/m2
06:46 57.4 °F 55.4 °F 30.03 in SSE 6.0 mph 10.0 mph 93 % 0.00 in 62 W/m2
06:48 57.4 °F 55.4 °F 30.03 in SSE 6.0 mph 10.0 mph 93 % 0.00 in 63 W/m2
06:53 57.4 °F 55.4 °F 30.03 in SSE 6.0 mph 10.0 mph 93 % 0.00 in 62 W/m2
06:58 57.6 °F 55.3 °F 30.03 in SSE 6.0 mph 9.0 mph 92 % 0.00 in 58 W/m2
07:03 57.6 °F 55.3 °F 30.03 in SSE 6.0 mph 9.0 mph 92 % 0.00 in 72 W/m2
07:08 57.6 °F 55.3 °F 30.02 in SSE 6.0 mph 10.0 mph 92 % 0.00 in 88 W/m2
07:13 57.7 °F 55.4 °F 30.03 in SSE 6.0 mph 10.0 mph 92 % 0.00 in 102 W/m2
07:18 57.9 °F 55.6 °F 30.02 in SSE 5.0 mph 8.0 mph 92 % 0.00 in 116 W/m2
07:23 57.9 °F 55.6 °F 30.02 in SSE 5.0 mph 8.0 mph 92 % 0.00 in 130 W/m2
07:28 58.3 °F 56.0 °F 30.02 in SSE 5.0 mph 11.0 mph 92 % 0.00 in 144 W/m2
07:33 58.3 °F 56.0 °F 30.02 in SSE 6.0 mph 11.0 mph 92 % 0.00 in 135 W/m2
07:38 58.5 °F 56.1 °F 30.02 in SSE 4.0 mph 10.0 mph 92 % 0.00 in 141 W/m2
07:43 58.6 °F 56.0 °F 30.02 in SSE 4.0 mph 9.0 mph 91 % 0.00 in 144 W/m2
07:48 58.8 °F 56.2 °F 30.02 in SSE 5.0 mph 9.0 mph 91 % 0.00 in 172 W/m2
07:53 59.2 °F 56.6 °F 30.02 in SSE 5.0 mph 9.0 mph 91 % 0.00 in 185 W/m2
07:58 59.4 °F 56.4 °F 30.02 in SSE 5.0 mph 11.0 mph 90 % 0.00 in 209 W/m2
08:03 59.5 °F 56.6 °F 30.02 in SSE 5.0 mph 11.0 mph 90 % 0.00 in 230 W/m2
08:08 59.7 °F 56.5 °F 30.02 in SSE 6.0 mph 10.0 mph 89 % 0.00 in 229 W/m2
08:13 60.1 °F 56.8 °F 30.02 in South 6.0 mph 10.0 mph 89 % 0.00 in 220 W/m2
08:18 60.3 °F 57.0 °F 30.02 in SSE 5.0 mph 9.0 mph 89 % 0.00 in 199 W/m2
08:23 60.4 °F 56.9 °F 30.02 in SSE 5.0 mph 8.0 mph 88 % 0.00 in 211 W/m2
08:28 60.6 °F 57.0 °F 30.02 in SSE 4.0 mph 8.0 mph 88 % 0.00 in 213 W/m2
08:33 61.0 °F 57.1 °F 30.02 in SE 4.0 mph 7.0 mph 87 % 0.00 in 207 W/m2
08:38 61.2 °F 57.3 °F 30.02 in SE 5.0 mph 8.0 mph 87 % 0.00 in 271 W/m2
08:44 61.5 °F 57.3 °F 30.02 in SE 6.0 mph 10.0 mph 86 % 0.00 in 218 W/m2
08:49 61.7 °F 57.5 °F 30.02 in SE 6.0 mph 10.0 mph 86 % 0.00 in 278 W/m2
08:54 61.9 °F 57.3 °F 30.01 in SE 5.0 mph 9.0 mph 85 % 0.00 in 225 W/m2
08:59 62.1 °F 57.5 °F 30.01 in SE 5.0 mph 9.0 mph 85 % 0.00 in 271 W/m2
09:04 62.2 °F 57.7 °F 30.01 in SE 4.0 mph 9.0 mph 85 % 0.00 in 276 W/m2
09:09 62.8 °F 58.2 °F 30.01 in SE 4.0 mph 9.0 mph 85 % 0.00 in 360 W/m2
09:14 63.1 °F 58.2 °F 30.01 in SE 5.0 mph 9.0 mph 84 % 0.00 in 322 W/m2
09:19 63.5 °F 58.2 °F 30.00 in SE 4.0 mph 8.0 mph 83 % 0.00 in 649 W/m2
09:24 64.2 °F 58.9 °F 30.01 in SE 4.0 mph 8.0 mph 83 % 0.00 in 670 W/m2
09:29 65.3 °F 59.3 °F 30.00 in SE 4.0 mph 8.0 mph 81 % 0.00 in 338 W/m2
09:34 65.7 °F 59.0 °F 30.00 in SE 4.0 mph 11.0 mph 79 % 0.00 in 547 W/m2
09:39 65.7 °F 59.0 °F 30.00 in SE 6.0 mph 11.0 mph 79 % 0.00 in 401 W/m2
09:44 66.0 °F 59.3 °F 30.00 in SE 5.0 mph 10.0 mph 79 % 0.00 in 436 W/m2
09:49 66.2 °F 59.5 °F 30.00 in SE 5.0 mph 8.0 mph 79 % 0.00 in 388 W/m2
09:55 66.4 °F 59.3 °F 29.99 in SSE 5.0 mph 8.0 mph 78 % 0.00 in 332 W/m2
10:00 66.6 °F 59.5 °F 29.99 in SSE 5.0 mph 10.0 mph 78 % 0.00 in 403 W/m2
10:08 66.9 °F 59.5 °F 29.99 in SSE 5.0 mph 8.0 mph 77 % 0.00 in 461 W/m2
10:11 67.3 °F 59.8 °F 29.99 in SE 5.0 mph 8.0 mph 77 % 0.00 in 413 W/m2
10:13 67.3 °F 59.8 °F 29.99 in SE 5.0 mph 8.0 mph 77 % 0.00 in 422 W/m2
10:15 67.5 °F 60.0 °F 29.99 in SE 5.0 mph 8.0 mph 77 % 0.00 in 636 W/m2
10:16 67.6 °F 60.2 °F 29.99 in SE 5.0 mph 8.0 mph 77 % 0.00 in 636 W/m2
10:18 67.8 °F 60.0 °F 29.99 in SE 5.0 mph 10.0 mph 76 % 0.00 in 438 W/m2
10:19 67.8 °F 60.0 °F 29.98 in SE 5.0 mph 10.0 mph 76 % 0.00 in 417 W/m2
10:22 68.2 °F 60.0 °F 29.98 in SE 6.0 mph 10.0 mph 75 % 0.00 in 334 W/m2
10:25 68.4 °F 60.1 °F 29.98 in SE 6.0 mph 10.0 mph 75 % 0.00 in 367 W/m2
10:26 68.4 °F 59.7 °F 29.98 in SE 6.0 mph 10.0 mph 74 % 0.00 in 394 W/m2
10:31 68.7 °F 60.1 °F 29.98 in SE 5.0 mph 9.0 mph 74 % 0.00 in 397 W/m2
10:35 69.1 °F 60.4 °F 29.98 in SE 5.0 mph 9.0 mph 74 % 0.00 in 357 W/m2
10:41 69.4 °F 60.4 °F 29.98 in SE 6.0 mph 9.0 mph 73 % 0.00 in 285 W/m2
10:46 69.4 °F 60.0 °F 29.97 in SE 6.0 mph 9.0 mph 72 % 0.00 in 348 W/m2
10:51 69.8 °F 60.4 °F 29.97 in SE 6.0 mph 9.0 mph 72 % 0.00 in 434 W/m2
10:56 70.2 °F 60.3 °F 29.97 in SE 5.0 mph 10.0 mph 71 % 0.00 in 599 W/m2
11:01 70.9 °F 60.6 °F 29.97 in SE 6.0 mph 12.0 mph 70 % 0.00 in 768 W/m2
11:06 71.6 °F 60.5 °F 29.97 in SE 6.0 mph 12.0 mph 68 % 0.00 in 768 W/m2
11:11 72.1 °F 60.6 °F 29.97 in SE 6.0 mph 11.0 mph 67 % 0.00 in 649 W/m2
11:16 72.7 °F 60.2 °F 29.96 in SE 7.0 mph 10.0 mph 65 % 0.00 in 810 W/m2
11:21 73.2 °F 60.3 °F 29.96 in SE 8.0 mph 13.0 mph 64 % 0.00 in 842 W/m2
11:26 73.6 °F 60.2 °F 29.96 in SE 8.0 mph 13.0 mph 63 % 0.00 in 831 W/m2
11:31 73.8 °F 60.4 °F 29.96 in SE 8.0 mph 13.0 mph 63 % 0.00 in 847 W/m2
11:36 73.9 °F 60.5 °F 29.96 in SE 9.0 mph 14.0 mph 63 % 0.00 in 846 W/m2
11:41 73.9 °F 60.5 °F 29.96 in SSE 8.0 mph 14.0 mph 63 % 0.00 in 842 W/m2
11:46 74.1 °F 61.2 °F 29.95 in SSE 8.0 mph 14.0 mph 64 % 0.00 in 846 W/m2
11:51 74.1 °F 61.2 °F 29.95 in SSE 8.0 mph 14.0 mph 64 % 0.00 in 854 W/m2
11:56 74.5 °F 61.1 °F 29.95 in SSE 7.0 mph 14.0 mph 63 % 0.00 in 875 W/m2
12:01 74.7 °F 61.7 °F 29.95 in SSE 7.0 mph 13.0 mph 64 % 0.00 in 865 W/m2
12:06 75.0 °F 61.6 °F 29.95 in SSE 7.0 mph 14.0 mph 63 % 0.00 in 872 W/m2
12:11 75.0 °F 61.6 °F 29.95 in SE 9.0 mph 14.0 mph 63 % 0.00 in 853 W/m2
12:16 75.4 °F 61.5 °F 29.95 in SE 9.0 mph 13.0 mph 62 % 0.00 in 756 W/m2
12:21 75.6 °F 61.6 °F 29.94 in SE 8.0 mph 14.0 mph 62 % 0.00 in 594 W/m2
12:26 75.4 °F 61.9 °F 29.94 in SE 8.0 mph 14.0 mph 63 % 0.00 in 875 W/m2
12:31 75.7 °F 62.2 °F 29.94 in SE 7.0 mph 12.0 mph 63 % 0.00 in 881 W/m2
12:36 76.1 °F 61.7 °F 29.94 in SE 7.0 mph 13.0 mph 61 % 0.00 in 888 W/m2
12:41 76.3 °F 61.4 °F 29.94 in SSE 8.0 mph 13.0 mph 60 % 0.00 in 882 W/m2
12:47 76.5 °F 62.0 °F 29.93 in SSE 7.0 mph 14.0 mph 61 % 0.00 in 812 W/m2
12:52 77.0 °F 62.0 °F 29.93 in SSE 5.0 mph 14.0 mph 60 % 0.00 in 872 W/m2
12:57 77.4 °F 61.9 °F 29.93 in South 5.0 mph 14.0 mph 59 % 0.00 in 844 W/m2
13:02 77.5 °F 61.6 °F 29.93 in SSE 7.0 mph 14.0 mph 58 % 0.00 in 875 W/m2
13:07 78.1 °F 62.6 °F 29.93 in SE 7.0 mph 14.0 mph 59 % 0.00 in 860 W/m2
13:12 78.3 °F 62.3 °F 29.93 in SSE 6.0 mph 12.0 mph 58 % 0.00 in 861 W/m2
13:17 78.6 °F 61.6 °F 29.93 in SSE 6.0 mph 11.0 mph 56 % 0.00 in 889 W/m2
13:22 78.8 °F 62.8 °F 29.93 in SSE 5.0 mph 11.0 mph 58 % 0.00 in 893 W/m2
13:27 79.0 °F 62.9 °F 29.93 in SSE 3.0 mph 10.0 mph 58 % 0.00 in 819 W/m2
13:32 79.5 °F 62.9 °F 29.93 in SSE 5.0 mph 11.0 mph 57 % 0.00 in 914 W/m2
13:37 79.9 °F 61.7 °F 29.93 in South 6.0 mph 11.0 mph 54 % 0.00 in 911 W/m2
13:42 80.2 °F 63.1 °F 29.93 in SW 5.0 mph 10.0 mph 56 % 0.00 in 947 W/m2
13:47 80.8 °F 62.6 °F 29.93 in South 5.0 mph 10.0 mph 54 % 0.00 in 821 W/m2
13:52 80.8 °F 62.6 °F 29.92 in South 4.0 mph 9.0 mph 54 % 0.00 in 879 W/m2
13:57 80.6 °F 62.9 °F 29.92 in South 5.0 mph 10.0 mph 55 % 0.00 in 918 W/m2
14:02 80.2 °F 62.1 °F 29.92 in SSE 7.0 mph 12.0 mph 54 % 0.00 in 271 W/m2
14:07 80.4 °F 62.8 °F 29.92 in SE 7.0 mph 12.0 mph 55 % 0.00 in 928 W/m2
14:12 81.0 °F 62.7 °F 29.91 in SE 6.0 mph 10.0 mph 54 % 0.00 in 928 W/m2
14:17 81.0 °F 62.2 °F 29.91 in SSE 5.0 mph 11.0 mph 53 % 0.00 in 893 W/m2
14:22 81.1 °F 62.4 °F 29.91 in SSW 5.0 mph 11.0 mph 53 % 0.00 in 893 W/m2
14:27 81.0 °F 62.2 °F 29.91 in SW 5.0 mph 11.0 mph 53 % 0.00 in 925 W/m2
14:32 81.3 °F 62.0 °F 29.91 in South 7.0 mph 15.0 mph 52 % 0.00 in 879 W/m2
14:37 81.9 °F 62.0 °F 29.90 in SSE 6.0 mph 15.0 mph 51 % 0.00 in 700 W/m2
14:42 81.9 °F 62.5 °F 29.91 in South 5.0 mph 10.0 mph 52 % 0.00 in 659 W/m2
14:47 81.5 °F 62.2 °F 29.90 in South 6.0 mph 10.0 mph 52 % 0.00 in 585 W/m2
14:52 81.7 °F 61.8 °F 29.90 in SSE 6.0 mph 12.0 mph 51 % 0.00 in 745 W/m2
14:57 81.7 °F 62.3 °F 29.90 in South 6.0 mph 12.0 mph 52 % 0.00 in 403 W/m2
15:02 81.5 °F 61.6 °F 29.90 in SSE 7.0 mph 12.0 mph 51 % 0.00 in 299 W/m2
15:07 81.3 °F 62.0 °F 29.90 in SSE 7.0 mph 12.0 mph 52 % 0.00 in 619 W/m2
15:12 81.1 °F 62.4 °F 29.90 in SSE 6.0 mph 11.0 mph 53 % 0.00 in 295 W/m2
15:17 81.0 °F 62.2 °F 29.90 in SSE 5.0 mph 8.0 mph 53 % 0.00 in 329 W/m2
15:22 80.8 °F 62.1 °F 29.90 in SSE 5.0 mph 11.0 mph 53 % 0.00 in 304 W/m2
15:27 80.4 °F 61.7 °F 29.89 in SE 4.0 mph 11.0 mph 53 % 0.00 in 301 W/m2
15:32 80.4 °F 62.2 °F 29.89 in SE 4.0 mph 10.0 mph 54 % 0.00 in 396 W/m2
15:37 80.4 °F 61.7 °F 29.89 in SE 6.0 mph 13.0 mph 53 % 0.00 in 367 W/m2
15:42 80.4 °F 61.2 °F 29.89 in SE 7.0 mph 13.0 mph 52 % 0.00 in 963 W/m2
15:47 80.8 °F 61.5 °F 29.89 in SSE 7.0 mph 11.0 mph 52 % 0.00 in 684 W/m2
15:52 81.0 °F 61.7 °F 29.89 in SSE 6.0 mph 11.0 mph 52 % 0.00 in 306 W/m2
15:57 81.0 °F 62.2 °F 29.89 in SSE 7.0 mph 12.0 mph 53 % 0.00 in 679 W/m2
16:02 81.1 °F 61.8 °F 29.88 in South 6.0 mph 12.0 mph 52 % 0.00 in 297 W/m2
16:07 81.0 °F 61.7 °F 29.88 in South 6.0 mph 12.0 mph 52 % 0.00 in 142 W/m2
16:12 80.4 °F 61.7 °F 29.88 in SSE 8.0 mph 14.0 mph 53 % 0.00 in 125 W/m2
16:17 80.1 °F 61.4 °F 29.88 in South 7.0 mph 14.0 mph 53 % 0.00 in 139 W/m2
16:22 79.7 °F 61.6 °F 29.88 in SSW 4.0 mph 9.0 mph 54 % 0.00 in 183 W/m2
16:27 79.5 °F 62.4 °F 29.88 in SSW 4.0 mph 9.0 mph 56 % 0.00 in 211 W/m2
16:32 79.5 °F 61.9 °F 29.88 in South 3.0 mph 7.0 mph 55 % 0.00 in 199 W/m2
16:37 79.3 °F 61.8 °F 29.88 in SSE 1.0 mph 4.0 mph 55 % 0.00 in 206 W/m2
16:42 79.3 °F 61.8 °F 29.87 in SSE 1.0 mph 4.0 mph 55 % 0.00 in 155 W/m2
16:48 79.3 °F 61.8 °F 29.87 in South 2.0 mph 5.0 mph 55 % 0.00 in 107 W/m2
16:53 79.3 °F 62.3 °F 29.87 in SSW 3.0 mph 5.0 mph 56 % 0.00 in 83 W/m2
16:58 79.3 °F 62.8 °F 29.87 in SW 4.0 mph 6.0 mph 57 % 0.00 in 86 W/m2
17:03 79.2 °F 62.6 °F 29.87 in SW 3.0 mph 6.0 mph 57 % 0.00 in 120 W/m2
17:08 79.2 °F 63.1 °F 29.87 in SW 3.0 mph 8.0 mph 58 % 0.00 in 137 W/m2
17:13 79.0 °F 62.9 °F 29.87 in WSW 6.0 mph 15.0 mph 58 % 0.00 in 141 W/m2
17:18 79.0 °F 63.4 °F 29.87 in West 7.0 mph 15.0 mph 59 % 0.00 in 97 W/m2
17:23 79.0 °F 62.9 °F 29.86 in WNW 6.0 mph 11.0 mph 58 % 0.00 in 84 W/m2
17:28 79.0 °F 63.4 °F 29.86 in WNW 6.0 mph 11.0 mph 59 % 0.00 in 56 W/m2
17:33 78.6 °F 63.6 °F 29.86 in WNW 6.0 mph 9.0 mph 60 % 0.00 in 53 W/m2
17:38 78.4 °F 67.4 °F 29.87 in West 5.0 mph 9.0 mph 69 % 0.02 in 62 W/m2
17:43 77.2 °F 66.6 °F 29.87 in SW 4.0 mph 9.0 mph 70 % 0.05 in 53 W/m2
17:48 75.4 °F 66.5 °F 29.87 in WSW 6.0 mph 13.0 mph 74 % 0.09 in 49 W/m2
17:53 73.8 °F 65.0 °F 29.86 in WNW 4.0 mph 13.0 mph 74 % 0.09 in 51 W/m2
17:58 73.2 °F 66.3 °F 29.86 in NNW 1.0 mph 8.0 mph 79 % 0.09 in 44 W/m2
18:03 72.7 °F 66.9 °F 29.86 in Calm   5.0 mph 82 % 0.09 in 51 W/m2
18:08 72.3 °F 67.6 °F 29.86 in Calm   4.0 mph 85 % 0.09 in 83 W/m2
18:13 72.0 °F 66.9 °F 29.86 in North 2.0 mph 5.0 mph 84 % 0.09 in 120 W/m2
18:18 72.0 °F 67.2 °F 29.86 in NNW 3.0 mph 6.0 mph 85 % 0.09 in 107 W/m2
18:23 72.0 °F 67.5 °F 29.86 in WNW 2.0 mph 6.0 mph 86 % 0.09 in 104 W/m2
18:28 72.0 °F 67.5 °F 29.86 in West 2.0 mph 6.0 mph 86 % 0.09 in 91 W/m2
18:33 72.0 °F 67.5 °F 29.86 in WNW 3.0 mph 8.0 mph 86 % 0.09 in 93 W/m2
18:38 72.0 °F 66.9 °F 29.86 in WNW 5.0 mph 9.0 mph 84 % 0.07 in 139 W/m2
18:43 72.1 °F 66.7 °F 29.86 in NW 5.0 mph 9.0 mph 83 % 0.05 in 188 W/m2
18:48 72.3 °F 66.9 °F 29.86 in NW 5.0 mph 10.0 mph 83 % 0.00 in 204 W/m2
18:53 72.5 °F 66.3 °F 29.86 in NW 7.0 mph 13.0 mph 81 % 0.00 in 151 W/m2
18:58 72.5 °F 65.6 °F 29.86 in NW 9.0 mph 15.0 mph 79 % 0.00 in 197 W/m2
19:03 72.5 °F 65.6 °F 29.87 in NW 9.0 mph 15.0 mph 79 % 0.00 in 204 W/m2
19:08 72.7 °F 65.8 °F 29.87 in NW 7.0 mph 12.0 mph 79 % 0.00 in 220 W/m2
19:13 72.7 °F 65.4 °F 29.87 in NW 7.0 mph 14.0 mph 78 % 0.00 in 302 W/m2
19:18 72.9 °F 65.6 °F 29.87 in NW 7.0 mph 14.0 mph 78 % 0.00 in 239 W/m2
19:23 73.0 °F 65.0 °F 29.87 in WNW 6.0 mph 15.0 mph 76 % 0.00 in 216 W/m2
19:28 73.2 °F 64.8 °F 29.87 in WNW 7.0 mph 15.0 mph 75 % 0.00 in 195 W/m2
19:33 73.0 °F 64.3 °F 29.88 in NW 7.0 mph 15.0 mph 74 % 0.00 in 148 W/m2
19:38 73.0 °F 63.9 °F 29.88 in WNW 7.0 mph 15.0 mph 73 % 0.00 in 169 W/m2
19:43 72.9 °F 63.7 °F 29.88 in NW 7.0 mph 12.0 mph 73 % 0.00 in 162 W/m2
19:48 72.9 °F 63.7 °F 29.88 in NW 5.0 mph 11.0 mph 73 % 0.00 in 146 W/m2
19:53 72.7 °F 63.1 °F 29.88 in NW 5.0 mph 13.0 mph 72 % 0.00 in 88 W/m2
19:58 72.3 °F 62.8 °F 29.89 in NW 6.0 mph 13.0 mph 72 % 0.00 in 46 W/m2
20:03 72.0 °F 62.4 °F 29.89 in NW 6.0 mph 11.0 mph 72 % 0.00 in 39 W/m2
20:08 71.6 °F 62.5 °F 29.89 in NW 7.0 mph 12.0 mph 73 % 0.00 in 39 W/m2
20:13 71.2 °F 62.1 °F 29.89 in NW 6.0 mph 12.0 mph 73 % 0.00 in 44 W/m2
20:18 71.1 °F 62.4 °F 29.89 in NW 6.0 mph 11.0 mph 74 % 0.00 in 30 W/m2
20:23 70.9 °F 62.6 °F 29.89 in NW 4.0 mph 11.0 mph 75 % 0.00 in 26 W/m2
20:28 70.5 °F 61.8 °F 29.90 in NW 4.0 mph 10.0 mph 74 % 0.00 in 21 W/m2
20:33 70.5 °F 62.2 °F 29.90 in NW 5.0 mph 10.0 mph 75 % 0.00 in 19 W/m2
20:38 70.3 °F 62.0 °F 29.90 in NW 4.0 mph 9.0 mph 75 % 0.00 in 23 W/m2
20:43 70.3 °F 61.7 °F 29.90 in NW 5.0 mph 10.0 mph 74 % 0.00 in 21 W/m2
20:48 70.2 °F 61.5 °F 29.90 in NW 6.0 mph 10.0 mph 74 % 0.00 in 18 W/m2
20:53 70.2 °F 60.7 °F 29.90 in NW 5.0 mph 10.0 mph 72 % 0.00 in 18 W/m2
20:59 70.0 °F 60.5 °F 29.90 in NW 5.0 mph 10.0 mph 72 % 0.00 in 19 W/m2
21:04 69.8 °F 60.0 °F 29.90 in NW 5.0 mph 10.0 mph 71 % 0.00 in 14 W/m2
21:09 69.6 °F 59.8 °F 29.91 in NW 5.0 mph 9.0 mph 71 % 0.00 in 11 W/m2
21:14 69.4 °F 59.6 °F 29.91 in NW 6.0 mph 10.0 mph 71 % 0.00 in 7 W/m2
21:19 69.3 °F 59.5 °F 29.91 in NW 6.0 mph 10.0 mph 71 % 0.00 in 5 W/m2
21:24 69.3 °F 59.5 °F 29.91 in NW 6.0 mph 9.0 mph 71 % 0.00 in 5 W/m2
21:29 69.1 °F 59.3 °F 29.91 in NW 5.0 mph 9.0 mph 71 % 0.00 in 0 W/m2
21:34 69.1 °F 59.3 °F 29.91 in NW 5.0 mph 9.0 mph 71 % 0.00 in 0 W/m2
21:39 68.9 °F 59.1 °F 29.91 in NW 5.0 mph 11.0 mph 71 % 0.00 in 0 W/m2
21:44 68.9 °F 59.1 °F 29.91 in NW 6.0 mph 11.0 mph 71 % 0.00 in 0 W/m2
21:49 68.7 °F 59.3 °F 29.91 in NW 6.0 mph 10.0 mph 72 % 0.00 in 0 W/m2
21:54 68.5 °F 59.2 °F 29.92 in NW 4.0 mph 10.0 mph 72 % 0.00 in 0 W/m2
21:59 68.4 °F 59.0 °F 29.92 in NW 4.0 mph 8.0 mph 72 % 0.00 in 0 W/m2
22:04 68.4 °F 59.4 °F 29.92 in NW 4.0 mph 8.0 mph 73 % 0.00 in 0 W/m2
22:09 68.2 °F 59.2 °F 29.92 in NW 4.0 mph 8.0 mph 73 % 0.00 in 0 W/m2
22:14 67.8 °F 58.1 °F 29.92 in NW 4.0 mph 9.0 mph 71 % 0.00 in 0 W/m2
22:19 67.6 °F 57.5 °F 29.92 in NW 5.0 mph 9.0 mph 70 % 0.00 in 0 W/m2
22:24 67.5 °F 57.3 °F 29.92 in NW 6.0 mph 11.0 mph 70 % 0.00 in 0 W/m2
22:29 67.5 °F 57.3 °F 29.93 in NW 6.0 mph 11.0 mph 70 % 0.00 in 0 W/m2
22:34 67.3 °F 57.6 °F 29.93 in NW 4.0 mph 9.0 mph 71 % 0.00 in 0 W/m2
22:39 67.3 °F 57.6 °F 29.93 in NW 4.0 mph 8.0 mph 71 % 0.00 in 0 W/m2
22:44 66.9 °F 57.2 °F 29.94 in NW 5.0 mph 13.0 mph 71 % 0.00 in 0 W/m2
22:49 66.7 °F 57.0 °F 29.94 in NW 6.0 mph 13.0 mph 71 % 0.00 in 0 W/m2
22:54 66.7 °F 57.4 °F 29.94 in NW 7.0 mph 13.0 mph 72 % 0.00 in 0 W/m2
22:59 66.6 °F 57.3 °F 29.94 in NW 6.0 mph 12.0 mph 72 % 0.00 in 0 W/m2
23:04 66.4 °F 57.5 °F 29.94 in NW 6.0 mph 13.0 mph 73 % 0.00 in 0 W/m2
23:09 66.4 °F 57.8 °F 29.94 in NW 6.0 mph 13.0 mph 74 % 0.00 in 0 W/m2
23:14 66.2 °F 57.7 °F 29.94 in NW 6.0 mph 13.0 mph 74 % 0.00 in 0 W/m2
23:19 66.0 °F 57.5 °F 29.95 in NW 7.0 mph 13.0 mph 74 % 0.00 in 0 W/m2
23:24 65.8 °F 57.7 °F 29.95 in NW 6.0 mph 10.0 mph 75 % 0.00 in 0 W/m2
23:29 65.8 °F 57.7 °F 29.95 in NW 4.0 mph 9.0 mph 75 % 0.00 in 0 W/m2
23:34 65.7 °F 57.9 °F 29.95 in NW 5.0 mph 10.0 mph 76 % 0.00 in 0 W/m2
23:39 65.7 °F 57.9 °F 29.95 in NW 5.0 mph 10.0 mph 76 % 0.00 in 0 W/m2
23:44 65.5 °F 57.7 °F 29.95 in NW 5.0 mph 10.0 mph 76 % 0.00 in 0 W/m2
23:49 65.3 °F 57.9 °F 29.95 in NW 5.0 mph 10.0 mph 77 % 0.00 in 0 W/m2
23:54 65.1 °F 57.7 °F 29.95 in NW 5.0 mph 10.0 mph 77 % 0.00 in 0 W/m2
23:59 65.1 °F 58.1 °F 29.95 in WNW 6.0 mph 10.0 mph 78 % 0.00 in 0 W/m2
Delerius-Weather
Compliments of Weather Underground - 2.25 mb

Data updates at regular intervals.